Impacts METAR Board
IDs:

KCLL - College Station/East, TX, US

Updated at: 0600 UTC 19 Aug 2019
Potential Impact None Slight Moderate High
Time 18/18Z 18/19Z 18/20Z 18/21Z 18/22Z 18/23Z 19/00Z 19/01Z 19/02Z 19/03Z 19/04Z 19/05Z 19/06Z
Temp96 97 98 99 100 96 95 93 91 88 87 85 83
Dewpt71 69 68 68 68 74 74 74 73 73 74 74 76
Altim29.90 29.90 29.88 29.85 29.83 29.85 29.85 29.86 29.86 29.88 29.92 29.93 29.94
VIS10 10 10 10 10 10 10 10 10 10 10 10 10
CIG-- -- -- 70 -- 70 -- -- -- -- -- -- --
CoverSCTFEWSCTBKNCLROVCCLRCLRCLRCLRCLRCLRCLR
FltCatVFRVFRVFRVFRVFRVFRVFRVFRVFRVFRVFRVFRVFR
WX--------------------------
WDir1901700170180150150150170170170180170
WSpd11 10 4 9 8 12 13 10 13 11 12 8 8
WGst17 17 -- 17 -- -- -- -- -- -- -- -- --
Raw hourly METARs
KCLL 181753Z 19011G17KT 10SM SCT050 36/22 A2990 RMK AO2 SLP120 T03560217 10356 20261 58006
KCLL 181853Z 17010G17KT 10SM FEW060 36/21 A2990 RMK AO2 SLP118 T03610206
KCLL 181953Z VRB04KT 10SM SCT065 37/20 A2988 RMK AO2 SLP111 T03670200
KCLL 182053Z 17009G17KT 10SM BKN070 37/20 A2985 RMK AO2 SLP104 T03720200 58016
KCLL 182153Z 18008KT 10SM CLR 38/20 A2983 RMK AO2 SLP097 T03780200
KCLL 182253Z 15012KT 10SM BKN070 OVC085 36/23 A2985 RMK AO2 SLP101 T03560233
KCLL 182353Z 15013KT 10SM CLR 35/23 A2985 RMK AO2 SLP102 T03500233 10378 20350 55002
KCLL 190053Z 15010KT 10SM CLR 34/23 A2986 RMK AO2 SLP105 T03390233
KCLL 190153Z AUTO 17013KT 10SM CLR 33/23 A2986 RMK AO2 SLP107 T03280228
KCLL 190253Z AUTO 17011KT 10SM CLR 31/23 A2988 RMK AO2 SLP113 T03110228 53011
KCLL 190353Z AUTO 17012KT 10SM CLR 31/23 A2992 RMK AO2 SLP126 T03060233
KCLL 190453Z AUTO 18008KT 10SM CLR 29/23 A2993 RMK AO2 SLP129 T02940233
KCLL 190553Z AUTO 17008KT 10SM CLR 28/24 A2994 RMK AO2 SLP134 T02830244 10350 20283 403780261 51021



Page loaded:  06:16 UTC  |   11:16 PM Pacific  |   12:16 AM Mountain  |   01:16 AM Central  |   02:16 AM Eastern

 

ADVISORIES

FORECASTS

FORECASTS

OBSERVATIONS

USER TOOLS

ABOUT US